Time;durP1;ratioP1;P1;durP2;ratioP2;P2;SDS_P1;SDS_P2;PMS_P1;PMS_P2;Temp;Humidity;BMP_temperature;BMP_pressure;BME280_temperature;BME280_humidity;BME280_pressure;Samples;Min_cycle;Max_cycle;Signal;HPM_P1;HPM_P2
2023/08/20 00:02:30;;;;;;;21.40;19.80;;;;;;;20.98;100.00;99674.28;5100260;28;20212;-83
2023/08/20 00:04:58;;;;;;;22.73;20.95;;;;;;;20.95;100.00;99674.84;5094713;28;20672;-82
2023/08/20 00:07:26;;;;;;;22.48;20.67;;;;;;;20.92;100.00;99670.00;5092917;28;20192;-83
2023/08/20 00:09:53;;;;;;;22.17;20.48;;;;;;;20.90;100.00;99665.94;5096736;28;20188;-83
2023/08/20 00:12:22;;;;;;;22.70;20.80;;;;;;;20.87;100.00;99672.75;5104610;28;20688;-83
2023/08/20 00:15:04;;;;;;;21.70;20.05;;;;;;;20.85;100.00;99680.41;5095620;28;20287;-83
2023/08/20 00:17:37;;;;;;;22.65;20.92;;;;;;;20.81;100.00;99684.00;5095705;28;20197;-82
2023/08/20 00:20:18;;;;;;;22.13;20.33;;;;;;;20.77;100.00;99682.91;5102638;28;20205;-82
2023/08/20 00:22:49;;;;;;;21.95;20.33;;;;;;;20.71;100.00;99675.91;5095370;28;20659;-81
2023/08/20 00:25:17;;;;;;;21.42;19.67;;;;;;;20.64;100.00;99679.75;5094142;28;20188;-82
2023/08/20 00:27:45;;;;;;;22.02;20.33;;;;;;;20.58;100.00;99678.16;5097723;28;20192;-82
2023/08/20 00:30:14;;;;;;;22.08;20.38;;;;;;;20.56;100.00;99674.94;5090917;28;20205;-81
2023/08/20 00:32:45;;;;;;;21.80;20.00;;;;;;;20.54;100.00;99679.00;5085831;28;20233;-81
2023/08/20 00:35:14;;;;;;;22.17;20.48;;;;;;;20.51;100.00;99680.41;5088253;28;20204;-81
2023/08/20 00:37:44;;;;;;;22.23;20.50;;;;;;;20.49;100.00;99681.78;5087461;28;20189;-81
2023/08/20 00:40:12;;;;;;;23.05;21.25;;;;;;;20.45;100.00;99683.44;5096437;28;20208;-81
2023/08/20 00:42:41;;;;;;;22.50;20.70;;;;;;;20.42;100.00;99684.00;5077882;28;20603;-81
2023/08/20 00:45:09;;;;;;;21.30;19.40;;;;;;;20.40;100.00;99686.19;5094781;28;20245;-82
2023/08/20 00:47:37;;;;;;;22.75;20.75;;;;;;;20.35;100.00;99683.50;5093254;28;20267;-81
2023/08/20 00:50:06;;;;;;;22.08;20.20;;;;;;;20.32;100.00;99681.34;5096816;28;20197;-83
2023/08/20 00:52:34;;;;;;;23.00;21.20;;;;;;;20.30;100.00;99689.78;5090759;28;20254;-81
2023/08/20 00:55:13;;;;;;;22.08;20.30;;;;;;;20.27;100.00;99687.59;5086966;28;20192;-81
2023/08/20 00:57:41;;;;;;;23.02;21.17;;;;;;;20.27;100.00;99694.94;5085276;28;20200;-82
2023/08/20 01:00:10;;;;;;;22.65;20.75;;;;;;;20.26;100.00;99696.84;5075788;28;20204;-87
2023/08/20 01:02:40;;;;;;;22.70;20.80;;;;;;;20.27;100.00;99692.22;5091364;28;20224;-82
2023/08/20 01:05:11;;;;;;;22.23;20.42;;;;;;;20.25;100.00;99691.72;5103306;28;20196;-82
2023/08/20 01:08:05;;;;;;;22.42;20.33;;;;;;;20.25;100.00;99695.22;5092435;28;20193;-82
2023/08/20 01:10:43;;;;;;;22.52;20.83;;;;;;;20.25;100.00;99694.44;5087292;28;20193;-81
2023/08/20 01:13:11;;;;;;;21.58;19.77;;;;;;;20.25;100.00;99689.00;5093404;28;20205;-82
2023/08/20 01:15:38;;;;;;;22.05;20.35;;;;;;;20.25;100.00;99699.88;5100197;28;20686;-82
2023/08/20 01:18:06;;;;;;;22.23;20.38;;;;;;;20.26;100.00;99691.41;5095518;28;20671;-82
2023/08/20 01:20:46;;;;;;;22.13;20.27;;;;;;;20.26;100.00;99698.75;5100318;28;20222;-82
2023/08/20 01:23:46;;;;;;;21.13;19.52;;;;;;;20.16;100.00;99697.72;5096262;28;20207;-82
2023/08/20 01:26:47;;;;;;;22.00;20.30;;;;;;;20.11;100.00;99705.91;5094048;28;20197;-82
2023/08/20 01:29:15;;;;;;;21.88;20.10;;;;;;;20.11;100.00;99699.69;5092645;28;20690;-82
2023/08/20 01:31:45;;;;;;;21.77;20.05;;;;;;;20.11;100.00;99710.56;5103327;28;20203;-82
2023/08/20 01:34:17;;;;;;;21.58;19.77;;;;;;;20.09;100.00;99708.13;5093700;28;20223;-82
2023/08/20 01:36:45;;;;;;;21.17;19.38;;;;;;;20.08;100.00;99714.63;5094249;28;20226;-81
2023/08/20 01:39:13;;;;;;;21.92;20.17;;;;;;;20.08;100.00;99711.91;5091027;28;20199;-81
2023/08/20 01:41:41;;;;;;;21.80;20.10;;;;;;;20.07;100.00;99714.91;5089476;28;20197;-81
2023/08/20 01:44:09;;;;;;;21.77;20.05;;;;;;;20.04;100.00;99710.84;5092461;28;20188;-81
2023/08/20 01:46:37;;;;;;;21.58;19.77;;;;;;;20.03;100.00;99713.84;5092955;28;20184;-81
2023/08/20 01:49:05;;;;;;;21.25;19.75;;;;;;;20.04;100.00;99713.56;5090957;28;20213;-82
2023/08/20 01:51:32;;;;;;;21.52;19.83;;;;;;;20.02;100.00;99710.31;5097564;28;20199;-82
2023/08/20 01:53:59;;;;;;;21.35;19.65;;;;;;;20.01;100.00;99710.59;5099530;28;20677;-81
2023/08/20 01:56:26;;;;;;;22.67;20.77;;;;;;;19.98;100.00;99711.16;5097787;28;20207;-81
2023/08/20 01:58:53;;;;;;;21.80;20.10;;;;;;;19.93;100.00;99709.25;5091214;28;20253;-82
2023/08/20 02:01:21;;;;;;;22.00;20.30;;;;;;;19.92;100.00;99710.38;5097935;28;20644;-81
2023/08/20 02:03:48;;;;;;;21.40;19.80;;;;;;;19.88;100.00;99716.63;5084712;28;20204;-81
2023/08/20 02:06:15;;;;;;;21.73;19.98;;;;;;;19.83;100.00;99714.75;5092511;28;20196;-81
2023/08/20 02:08:45;;;;;;;21.55;19.88;;;;;;;19.82;100.00;99715.03;5094886;28;20279;-82
2023/08/20 02:11:12;;;;;;;23.02;21.23;;;;;;;19.81;100.00;99707.97;5092344;28;20215;-83
2023/08/20 02:13:39;;;;;;;22.60;20.70;;;;;;;19.79;100.00;99709.06;5082859;28;20199;-82
2023/08/20 02:16:07;;;;;;;22.00;20.30;;;;;;;19.77;100.00;99708.53;5091123;28;20220;-81
2023/08/20 02:18:35;;;;;;;23.25;21.15;;;;;;;19.74;100.00;99706.34;5100584;28;20198;-82
2023/08/20 02:21:03;;;;;;;22.40;20.53;;;;;;;19.68;100.00;99709.38;5091681;28;20197;-81
2023/08/20 02:23:31;;;;;;;21.40;19.75;;;;;;;19.64;100.00;99713.75;5093638;28;20196;-82
2023/08/20 02:25:58;;;;;;;22.38;20.58;;;;;;;19.61;100.00;99712.38;5091772;28;20206;-82
2023/08/20 02:28:29;;;;;;;22.30;20.50;;;;;;;19.58;100.00;99706.69;5100201;28;20191;-82
2023/08/20 02:30:57;;;;;;;22.50;20.70;;;;;;;19.53;100.00;99707.53;5094929;28;20206;-82
2023/08/20 02:33:25;;;;;;;22.58;20.88;;;;;;;19.52;100.00;99699.63;5091680;28;20240;-82
2023/08/20 02:35:53;;;;;;;22.75;20.98;;;;;;;19.51;100.00;99717.84;5091646;28;20207;-82
2023/08/20 02:38:21;;;;;;;21.90;20.20;;;;;;;19.50;100.00;99718.13;5085430;28;20198;-83
2023/08/20 02:40:49;;;;;;;23.42;21.50;;;;;;;19.46;100.00;99717.03;5098192;28;20191;-82
2023/08/20 02:43:18;;;;;;;23.10;21.30;;;;;;;19.40;100.00;99716.22;5095401;28;20203;-82
2023/08/20 02:45:47;;;;;;;23.15;21.30;;;;;;;19.30;100.00;99719.78;5090439;28;20216;-81
2023/08/20 02:48:17;;;;;;;23.52;21.42;;;;;;;19.27;100.00;99722.22;5100242;28;20220;-81
2023/08/20 02:50:46;;;;;;;22.08;20.38;;;;;;;19.17;100.00;99716.81;5092047;28;20218;-84
2023/08/20 02:53:14;;;;;;;22.77;20.88;;;;;;;19.12;100.00;99725.78;5093069;28;20195;-81
2023/08/20 02:55:43;;;;;;;23.90;22.10;;;;;;;19.09;100.00;99717.34;5096008;28;20738;-84
2023/08/20 02:58:10;;;;;;;24.37;22.23;;;;;;;19.07;100.00;99719.53;5073978;28;20224;-82
2023/08/20 03:00:39;;;;;;;24.47;22.47;;;;;;;19.03;100.00;99715.72;5087185;28;20184;-82
2023/08/20 03:03:08;;;;;;;24.33;22.43;;;;;;;19.01;100.00;99718.72;5099321;28;20201;-85
2023/08/20 03:05:40;;;;;;;24.57;22.57;;;;;;;18.97;100.00;99712.19;5094728;28;20248;-82
2023/08/20 03:08:07;;;;;;;24.17;22.27;;;;;;;18.97;100.00;99720.34;5095717;28;20657;-83
2023/08/20 03:10:35;;;;;;;23.40;21.50;;;;;;;18.99;100.00;99726.31;5100028;28;20196;-83
2023/08/20 03:13:03;;;;;;;23.33;21.40;;;;;;;18.95;100.00;99729.84;5099363;28;20195;-82
2023/08/20 03:15:30;;;;;;;23.90;22.07;;;;;;;18.90;100.00;99733.38;5101552;28;20214;-82
2023/08/20 03:17:58;;;;;;;24.37;22.37;;;;;;;18.86;100.00;99727.66;5070136;28;20227;-83
2023/08/20 03:20:26;;;;;;;24.07;22.17;;;;;;;18.81;100.00;99724.94;5108094;28;20680;-81
2023/08/20 03:22:54;;;;;;;23.67;21.70;;;;;;;18.80;100.00;99723.31;5097783;28;20284;-82
2023/08/20 03:25:22;;;;;;;24.57;22.67;;;;;;;18.81;100.00;99733.09;5089853;28;20192;-82
2023/08/20 03:27:52;;;;;;;24.83;22.73;;;;;;;18.80;100.00;99734.19;5098546;28;20256;-82
2023/08/20 03:30:19;;;;;;;24.77;22.67;;;;;;;18.78;100.00;99739.06;5092990;28;20224;-82
2023/08/20 03:32:47;;;;;;;25.03;22.93;;;;;;;18.78;100.00;99739.06;5097695;28;20231;-81
2023/08/20 03:35:14;;;;;;;24.80;22.70;;;;;;;18.76;100.00;99737.69;5093169;28;20198;-82
2023/08/20 03:37:43;;;;;;;24.67;22.47;;;;;;;18.75;100.00;99733.38;5093098;28;20310;-82
2023/08/20 03:40:11;;;;;;;24.40;22.50;;;;;;;18.69;100.00;99750.72;5081957;28;20205;-82
2023/08/20 03:42:38;;;;;;;24.47;22.47;;;;;;;18.59;100.00;99746.09;5084721;28;20198;-82
2023/08/20 03:45:06;;;;;;;24.57;22.50;;;;;;;18.55;100.00;99752.34;5092200;28;20188;-83
2023/08/20 03:47:34;;;;;;;23.97;22.07;;;;;;;18.51;100.00;99752.03;5106257;28;20227;-84
2023/08/20 03:50:03;;;;;;;23.90;22.03;;;;;;;18.47;100.00;99754.47;5079764;28;20212;-82
2023/08/20 03:52:31;;;;;;;24.90;22.97;;;;;;;18.45;100.00;99753.09;5090829;28;20214;-82
2023/08/20 03:54:59;;;;;;;25.13;22.90;;;;;;;18.45;100.00;99745.78;5099397;28;20204;-84
2023/08/20 03:57:27;;;;;;;24.33;22.27;;;;;;;18.49;100.00;99746.88;5083514;28;20210;-84
2023/08/20 03:59:54;;;;;;;24.30;22.40;;;;;;;18.50;100.00;99744.97;5107129;27;20666;-82
2023/08/20 04:02:21;;;;;;;23.97;21.97;;;;;;;18.53;100.00;99743.59;5095034;28;20216;-83
2023/08/20 04:04:50;;;;;;;24.03;22.03;;;;;;;18.54;100.00;99748.81;5093711;28;20279;-84
2023/08/20 04:07:18;;;;;;;25.70;23.60;;;;;;;18.58;100.00;99749.06;5093319;28;20223;-82
2023/08/20 04:09:46;;;;;;;24.50;22.50;;;;;;;18.63;100.00;99743.66;5093614;28;20188;-82
2023/08/20 04:12:13;;;;;;;25.10;23.10;;;;;;;18.67;100.00;99747.47;5076284;28;20199;-82
2023/08/20 04:14:41;;;;;;;24.60;22.60;;;;;;;18.71;100.00;99743.16;5094211;28;20195;-83
2023/08/20 04:17:10;;;;;;;24.03;22.03;;;;;;;18.79;100.00;99746.13;5090036;28;20703;-83
2023/08/20 04:19:37;;;;;;;24.40;22.50;;;;;;;18.86;100.00;99745.84;5099230;28;20667;-83
2023/08/20 04:22:06;;;;;;;23.93;21.80;;;;;;;18.96;100.00;99745.03;5096110;28;20196;-83
2023/08/20 04:24:36;;;;;;;23.53;21.63;;;;;;;19.03;100.00;99751.84;5090993;28;20210;-83
2023/08/20 04:27:04;;;;;;;24.63;22.53;;;;;;;19.10;100.00;99757.81;5094189;28;20606;-83
2023/08/20 04:29:31;;;;;;;23.13;21.33;;;;;;;19.17;100.00;99749.41;5093839;28;20292;-82
2023/08/20 04:31:59;;;;;;;23.20;21.40;;;;;;;19.23;100.00;99756.44;5093067;28;20200;-82
2023/08/20 04:34:27;;;;;;;23.07;21.27;;;;;;;19.28;100.00;99749.09;5074968;28;20325;-82
2023/08/20 04:36:55;;;;;;;22.53;20.83;;;;;;;19.38;100.00;99764.56;5086971;28;20220;-82
2023/08/20 04:39:23;;;;;;;23.23;21.17;;;;;;;19.47;100.00;99757.53;5103486;28;20546;-83
2023/08/20 04:41:53;;;;;;;22.30;20.60;;;;;;;19.60;100.00;99756.13;5093025;28;20245;-82
2023/08/20 04:44:21;;;;;;;22.93;21.13;;;;;;;19.72;100.00;99760.19;5092718;28;20321;-82
2023/08/20 04:46:49;;;;;;;22.50;20.70;;;;;;;19.83;100.00;99760.16;5101278;28;20209;-82
2023/08/20 04:49:17;;;;;;;22.57;20.70;;;;;;;19.96;100.00;99770.44;5095387;28;20224;-82
2023/08/20 04:51:45;;;;;;;21.40;19.70;;;;;;;20.07;100.00;99752.97;5094020;28;20223;-82
2023/08/20 04:54:14;;;;;;;21.75;20.08;;;;;;;20.18;100.00;99769.00;5101031;28;20195;-82
2023/08/20 04:56:42;;;;;;;21.87;20.17;;;;;;;20.32;100.00;99762.97;5085254;28;20227;-82
2023/08/20 04:59:11;;;;;;;20.55;18.95;;;;;;;20.44;100.00;99766.16;5092576;28;20207;-82
2023/08/20 05:01:52;;;;;;;21.05;19.35;;;;;;;20.58;100.00;99761.72;5087013;28;20201;-82
2023/08/20 05:04:36;;;;;;;20.58;19.00;;;;;;;20.75;100.00;99761.34;5088102;28;20212;-82
2023/08/20 05:07:05;;;;;;;20.30;18.77;;;;;;;20.87;100.00;99759.91;5083891;28;20219;-82
2023/08/20 05:09:35;;;;;;;21.40;19.50;;;;;;;20.99;100.00;99773.16;5092228;28;20215;-83
2023/08/20 05:12:03;;;;;;;20.65;19.05;;;;;;;21.12;100.00;99766.25;5103273;28;20199;-84
2023/08/20 05:14:31;;;;;;;20.20;18.60;;;;;;;21.25;100.00;99771.88;5089452;28;20200;-82
2023/08/20 05:16:59;;;;;;;20.55;18.95;;;;;;;21.36;100.00;99762.53;5091615;28;20587;-82
2023/08/20 05:19:28;;;;;;;20.20;18.50;;;;;;;21.50;100.00;99765.38;5077651;28;20195;-82
2023/08/20 05:21:58;;;;;;;18.77;17.38;;;;;;;21.65;100.00;99769.88;5098920;28;20215;-82
2023/08/20 05:24:29;;;;;;;19.38;17.92;;;;;;;21.79;100.00;99770.81;5090649;28;20188;-81
2023/08/20 05:27:06;;;;;;;19.50;18.00;;;;;;;21.93;100.00;99774.47;5096161;28;20197;-82
2023/08/20 05:29:34;;;;;;;19.67;17.92;;;;;;;21.98;100.00;99773.63;5072009;28;20736;-81
2023/08/20 05:32:03;;;;;;;20.42;18.73;;;;;;;22.09;100.00;99778.66;5084361;28;20246;-82
2023/08/20 05:34:30;;;;;;;19.15;17.65;;;;;;;22.24;100.00;99778.47;5098514;28;20228;-83
2023/08/20 05:36:59;;;;;;;18.75;17.35;;;;;;;22.41;100.00;99772.50;5088226;28;20301;-82
2023/08/20 05:39:30;;;;;;;18.85;17.35;;;;;;;22.54;100.00;99776.41;5092036;28;20204;-82
2023/08/20 05:41:58;;;;;;;18.75;17.20;;;;;;;22.69;100.00;99781.66;5089237;28;20598;-82
2023/08/20 05:44:26;;;;;;;18.63;17.02;;;;;;;22.79;100.00;99778.81;5091733;28;20193;-82
2023/08/20 05:46:55;;;;;;;18.05;16.65;;;;;;;22.94;100.00;99786.78;5075415;28;20200;-82
2023/08/20 05:49:25;;;;;;;17.23;16.00;;;;;;;23.09;100.00;99792.03;5083901;28;20219;-82
2023/08/20 05:51:55;;;;;;;18.02;16.52;;;;;;;23.25;100.00;99793.38;5096718;28;20208;-82
2023/08/20 05:54:22;;;;;;;18.38;16.98;;;;;;;23.42;100.00;99794.75;5074867;28;20287;-82
2023/08/20 05:56:52;;;;;;;17.45;16.15;;;;;;;23.52;100.00;99800.84;5093013;28;20220;-82
2023/08/20 05:59:20;;;;;;;16.95;15.75;;;;;;;23.66;100.00;99789.94;5094316;28;20279;-82
2023/08/20 06:01:48;;;;;;;18.13;16.83;;;;;;;23.81;100.00;99797.06;5091605;28;20262;-82
2023/08/20 06:04:15;;;;;;;17.90;16.60;;;;;;;23.96;100.00;99796.78;5072266;28;20210;-82
2023/08/20 06:06:45;;;;;;;18.33;16.98;;;;;;;24.03;100.00;99803.44;5087149;28;20204;-82
2023/08/20 06:09:13;;;;;;;17.38;15.98;;;;;;;24.17;100.00;99805.44;5088876;28;20189;-81
2023/08/20 06:11:41;;;;;;;17.77;16.35;;;;;;;24.27;100.00;99803.28;5089460;28;20190;-82
2023/08/20 06:14:08;;;;;;;16.30;15.10;;;;;;;24.38;100.00;99806.63;5091159;28;20201;-83
2023/08/20 06:16:36;;;;;;;16.60;15.30;;;;;;;24.46;100.00;99811.38;5097706;28;20598;-81
2023/08/20 06:19:05;;;;;;;17.48;16.08;;;;;;;24.48;100.00;99801.75;5092743;28;20191;-82
2023/08/20 06:21:32;;;;;;;17.42;15.95;;;;;;;24.66;100.00;99799.16;5092074;28;20549;-83
2023/08/20 06:24:00;;;;;;;16.52;15.35;;;;;;;24.79;100.00;99790.91;5090511;28;20206;-82
2023/08/20 06:26:27;;;;;;;16.92;15.63;;;;;;;24.97;100.00;99798.16;5099105;28;21137;-81
2023/08/20 06:28:57;;;;;;;16.45;15.07;;;;;;;25.11;100.00;99795.38;5068182;28;20204;-81
2023/08/20 06:31:24;;;;;;;16.50;15.20;;;;;;;25.24;100.00;99788.22;5096187;28;20192;-81
2023/08/20 06:33:52;;;;;;;16.75;15.48;;;;;;;25.36;100.00;99796.69;5094583;28;20729;-81
2023/08/20 06:36:21;;;;;;;17.25;15.82;;;;;;;25.50;100.00;99802.91;5095457;28;20188;-82
2023/08/20 06:38:49;;;;;;;16.95;15.63;;;;;;;25.56;100.00;99796.19;5094418;28;20262;-83
2023/08/20 06:41:18;;;;;;;15.68;14.48;;;;;;;25.70;100.00;99801.59;5096044;28;20603;-81
2023/08/20 06:43:46;;;;;;;16.45;15.15;;;;;;;25.81;100.00;99800.19;5102227;28;20213;-81
2023/08/20 06:46:14;;;;;;;15.93;14.73;;;;;;;25.92;100.00;99801.53;5091596;28;20196;-81
2023/08/20 06:48:44;;;;;;;15.98;14.68;;;;;;;25.99;100.00;99796.38;5095434;28;20316;-82
2023/08/20 06:51:13;;;;;;;15.40;14.07;;;;;;;26.10;100.00;99797.72;5099735;28;20196;-81
2023/08/20 06:53:41;;;;;;;16.75;15.00;;;;;;;26.22;100.00;99797.94;5093883;28;20195;-82
2023/08/20 06:56:09;;;;;;;15.07;13.98;;;;;;;26.32;100.00;99804.28;5095709;28;20196;-83
2023/08/20 06:58:38;;;;;;;15.68;14.38;;;;;;;26.38;100.00;99801.06;5102973;28;20220;-81
2023/08/20 07:01:08;;;;;;;15.45;14.40;;;;;;;26.46;100.00;99804.94;5097809;28;20196;-81
2023/08/20 07:03:43;;;;;;;15.15;14.05;;;;;;;26.57;100.00;99804.31;5091056;28;20192;-82
2023/08/20 07:06:10;;;;;;;14.77;13.57;;;;;;;26.64;100.00;99804.63;5096801;28;20282;-83
2023/08/20 07:08:39;;;;;;;14.30;13.23;;;;;;;26.73;100.00;99802.75;5095001;28;20199;-83
2023/08/20 07:11:07;;;;;;;15.52;14.32;;;;;;;26.81;100.00;99800.31;5093751;28;20193;-81
2023/08/20 07:13:34;;;;;;;15.02;13.93;;;;;;;26.94;100.00;99799.38;5093432;28;20196;-81
2023/08/20 07:16:03;;;;;;;16.45;15.25;;;;;;;27.09;100.00;99796.94;5088742;28;20734;-85
2023/08/20 07:18:30;;;;;;;15.65;14.40;;;;;;;27.23;100.00;99796.75;5093603;28;20213;-81
2023/08/20 07:20:56;;;;;;;16.13;14.93;;;;;;;27.31;100.00;99795.13;5105425;28;20199;-81
2023/08/20 07:23:24;;;;;;;16.00;14.70;;;;;;;27.32;100.00;99799.50;5099451;28;20556;-84
2023/08/20 07:26:05;;;;;;;14.55;13.55;;;;;;;27.47;100.00;99794.28;5104661;28;20254;-83
2023/08/20 07:31:18;;;;;;;14.88;13.57;;;;;;;27.73;100.00;99801.69;5100902;28;20269;-80
2023/08/20 07:33:49;;;;;;;16.27;14.73;;;;;;;27.84;100.00;99798.25;5108296;28;20288;-81
2023/08/20 07:36:16;;;;;;;15.10;13.88;;;;;;;27.97;100.00;99793.66;5103199;28;20203;-82
2023/08/20 07:38:43;;;;;;;14.75;13.70;;;;;;;28.10;100.00;99794.56;5108536;28;20244;-81
2023/08/20 07:41:11;;;;;;;15.75;14.43;;;;;;;28.19;100.00;99800.88;5101238;28;20192;-81
2023/08/20 07:43:39;;;;;;;15.68;14.38;;;;;;;28.30;100.00;99794.66;5098850;28;20283;-83
2023/08/20 07:46:07;;;;;;;14.93;13.82;;;;;;;28.48;100.00;99794.53;5102452;28;20193;-81
2023/08/20 07:48:35;;;;;;;15.18;14.10;;;;;;;28.54;100.00;99795.97;5100924;28;20211;-85
2023/08/20 07:51:03;;;;;;;15.05;13.70;;;;;;;28.62;100.00;99801.41;5103998;28;20643;-87
2023/08/20 07:53:32;;;;;;;14.35;13.13;;;;;;;28.74;100.00;99806.25;5082922;28;20204;-81
2023/08/20 07:56:00;;;;;;;15.32;14.05;;;;;;;28.69;100.00;99806.41;5100289;28;20682;-81
2023/08/20 07:58:29;;;;;;;14.50;13.38;;;;;;;28.73;100.00;99804.63;5093768;28;20280;-81
2023/08/20 08:00:57;;;;;;;14.70;13.48;;;;;;;28.83;100.00;99807.78;5099534;28;20204;-81
2023/08/20 08:03:26;;;;;;;15.07;13.98;;;;;;;28.96;100.00;99807.84;5095928;28;20200;-81
2023/08/20 08:05:55;;;;;;;14.40;13.40;;;;;;;28.96;100.00;99810.59;5105168;28;20249;-82
2023/08/20 08:08:22;;;;;;;15.38;14.27;;;;;;;28.87;100.00;99808.72;5104530;28;20654;-82
2023/08/20 08:10:50;;;;;;;14.30;13.30;;;;;;;28.87;100.00;99810.69;5101657;28;20196;-81
2023/08/20 08:13:22;;;;;;;14.40;13.30;;;;;;;28.67;100.00;99814.19;5106090;28;20187;-81
2023/08/20 08:15:50;;;;;;;15.10;13.77;;;;;;;28.70;100.00;99805.25;5073935;28;20688;-81
2023/08/20 08:18:19;;;;;;;15.00;13.90;;;;;;;28.77;100.00;99811.88;5103972;28;20278;-81
2023/08/20 08:20:47;;;;;;;14.73;13.52;;;;;;;28.81;100.00;99812.81;5105396;28;20207;-81
2023/08/20 08:23:15;;;;;;;14.93;13.73;;;;;;;29.00;100.00;99811.53;5104105;28;20192;-83
2023/08/20 08:25:43;;;;;;;14.75;13.65;;;;;;;29.06;100.00;99812.97;5103291;28;20184;-81
2023/08/20 08:28:10;;;;;;;14.05;13.05;;;;;;;29.18;100.00;99810.25;5088337;28;20197;-82
2023/08/20 08:30:39;;;;;;;14.48;13.30;;;;;;;29.28;100.00;99813.38;5102919;28;20180;-81
2023/08/20 08:33:07;;;;;;;14.50;13.40;;;;;;;29.16;100.00;99813.31;5113026;28;20321;-82
2023/08/20 08:35:35;;;;;;;13.70;12.70;;;;;;;29.25;100.00;99811.31;5111814;28;20194;-84
2023/08/20 08:38:03;;;;;;;13.75;12.73;;;;;;;29.45;100.00;99811.63;5091795;28;20754;-80
2023/08/20 08:40:31;;;;;;;13.82;12.82;;;;;;;29.59;100.00;99810.16;5100722;28;20249;-81
2023/08/20 08:43:00;;;;;;;13.63;12.55;;;;;;;29.57;100.00;99806.16;5086406;28;20237;-82
2023/08/20 08:45:28;;;;;;;13.55;12.38;;;;;;;29.69;100.00;99806.97;5101145;28;20195;-81
2023/08/20 08:47:58;;;;;;;13.65;12.55;;;;;;;29.83;100.00;99803.88;5093233;28;20246;-81
2023/08/20 08:50:25;;;;;;;12.27;11.27;;;;;;;30.01;100.00;99801.75;5102641;28;20194;-81
2023/08/20 08:52:54;;;;;;;13.65;12.55;;;;;;;30.04;100.00;99804.66;5100483;28;20184;-81
2023/08/20 08:55:21;;;;;;;13.32;12.25;;;;;;;29.95;100.00;99809.47;5110693;28;20187;-83
2023/08/20 08:57:49;;;;;;;13.23;12.32;;;;;;;29.57;100.00;99812.47;5098619;28;20633;-81
2023/08/20 09:00:16;;;;;;;13.65;12.75;;;;;;;29.68;100.00;99808.13;5110220;28;20195;-81
2023/08/20 09:02:44;;;;;;;14.07;12.98;;;;;;;29.85;100.00;99809.88;5090953;28;20634;-80
2023/08/20 09:05:14;;;;;;;13.77;12.82;;;;;;;29.61;100.00;99810.66;5102197;28;20822;-81
2023/08/20 09:07:45;;;;;;;13.15;11.98;;;;;;;29.74;100.00;99817.00;5083940;28;20303;-82
2023/08/20 09:10:18;;;;;;;13.27;12.20;;;;;;;29.46;100.00;99816.81;5100390;28;20553;-81
2023/08/20 09:12:48;;;;;;;12.32;11.43;;;;;;;29.65;100.00;99814.34;5110574;28;20195;-81
2023/08/20 09:15:16;;;;;;;11.88;11.07;;;;;;;29.88;100.00;99813.91;5112708;28;20191;-81
2023/08/20 09:17:43;;;;;;;11.82;10.88;;;;;;;29.90;100.00;99819.94;5105901;28;20253;-80
2023/08/20 09:20:11;;;;;;;12.38;11.43;;;;;;;30.10;100.00;99821.78;5102810;28;20584;-81
2023/08/20 09:22:38;;;;;;;12.10;11.10;;;;;;;30.30;100.00;99818.09;5097011;28;20208;-80
2023/08/20 09:25:05;;;;;;;11.68;10.60;;;;;;;30.50;100.00;99821.94;5093446;28;20196;-81
2023/08/20 09:27:42;;;;;;;12.05;11.15;;;;;;;30.39;100.00;99818.78;5112411;28;20282;-81
2023/08/20 09:30:10;;;;;;;11.48;10.65;;;;;;;30.69;100.00;99819.38;5096148;28;20199;-81
2023/08/20 09:32:38;;;;;;;11.98;11.15;;;;;;;30.88;100.00;99818.75;5100044;28;20228;-81
2023/08/20 09:35:06;;;;;;;10.50;9.77;;;;;;;30.69;100.00;99826.84;5092039;28;20716;-81
2023/08/20 09:37:34;;;;;;;11.50;10.63;;;;;;;30.51;100.00;99824.34;5093327;28;20225;-81
2023/08/20 09:40:02;;;;;;;11.80;10.73;;;;;;;30.81;100.00;99815.75;5102268;28;20257;-81
2023/08/20 09:42:32;;;;;;;11.82;10.80;;;;;;;30.92;100.00;99820.47;5110069;28;20218;-80
2023/08/20 09:45:03;;;;;;;11.77;10.80;;;;;;;30.91;100.00;99813.31;5105356;28;20196;-82
2023/08/20 09:47:34;;;;;;;12.48;11.48;;;;;;;30.90;100.00;99806.16;5099908;28;20245;-83
2023/08/20 09:50:02;;;;;;;11.52;10.50;;;;;;;30.60;100.00;99810.41;5098252;28;20219;-82
2023/08/20 09:52:37;;;;;;;11.20;10.27;;;;;;;30.44;100.00;99815.78;5104166;28;20261;-79
2023/08/20 09:55:09;;;;;;;11.63;10.82;;;;;;;30.74;100.00;99816.34;5098011;28;20191;-81
2023/08/20 09:57:39;;;;;;;12.10;11.20;;;;;;;30.88;100.00;99813.22;5094564;28;20225;-80
2023/08/20 10:00:13;;;;;;;11.85;10.98;;;;;;;31.00;100.00;99813.16;5104616;28;20279;-80
2023/08/20 10:02:42;;;;;;;10.68;9.90;;;;;;;31.15;100.00;99817.97;5097455;28;20203;-83
2023/08/20 10:05:11;;;;;;;12.20;11.30;;;;;;;31.22;100.00;99806.28;5098028;28;20192;-81
2023/08/20 10:07:40;;;;;;;11.00;10.00;;;;;;;31.28;100.00;99810.44;5078760;28;20192;-81
2023/08/20 10:10:13;;;;;;;11.25;10.45;;;;;;;31.24;100.00;99807.56;5091599;28;20216;-82
2023/08/20 10:12:43;;;;;;;10.98;9.98;;;;;;;31.47;100.00;99805.03;5097782;28;20191;-82
2023/08/20 10:15:13;;;;;;;11.13;10.32;;;;;;;31.68;100.00;99797.31;5104626;28;20200;-82
2023/08/20 10:17:44;;;;;;;10.82;9.93;;;;;;;31.73;100.00;99805.34;5100471;28;20198;-83
2023/08/20 10:20:15;;;;;;;10.50;9.70;;;;;;;31.63;100.00;99797.59;5100308;28;20207;-84
2023/08/20 10:22:45;;;;;;;11.15;10.25;;;;;;;31.28;100.00;99793.81;5096167;28;20566;-82
2023/08/20 10:25:23;;;;;;;11.07;10.05;;;;;;;31.38;100.00;99799.66;5094605;28;20184;-82
2023/08/20 10:27:50;;;;;;;10.60;9.70;;;;;;;31.41;100.00;99795.38;5107363;28;20199;-82
2023/08/20 10:30:22;;;;;;;11.18;10.38;;;;;;;31.45;100.00;99791.53;5091494;28;20563;-81
2023/08/20 10:32:52;;;;;;;10.38;9.68;;;;;;;31.52;100.00;99793.69;5088724;28;20231;-81
2023/08/20 10:35:27;;;;;;;10.43;9.63;;;;;;;31.65;100.00;99791.69;5097766;28;20192;-83
2023/08/20 10:38:04;;;;;;;10.85;10.05;;;;;;;31.35;99.41;99786.53;5103463;28;20209;-82
2023/08/20 10:40:56;;;;;;;10.98;10.07;;;;;;;31.55;100.00;99795.75;5108887;28;20678;-81
2023/08/20 10:43:30;;;;;;;11.15;10.32;;;;;;;31.47;100.00;99786.47;5095076;28;20256;-82
2023/08/20 10:46:07;;;;;;;11.10;10.18;;;;;;;31.67;99.56;99792.94;5084307;28;20196;-81
2023/08/20 10:48:38;;;;;;;10.40;9.70;;;;;;;31.69;100.00;99787.03;5100736;28;20682;-81
2023/08/20 10:51:19;;;;;;;10.73;9.68;;;;;;;31.52;99.04;99790.94;5106755;28;20250;-81
2023/08/20 10:54:03;;;;;;;10.52;9.82;;;;;;;31.30;95.82;99786.78;5101099;28;20202;-82
2023/08/20 10:56:48;;;;;;;10.15;9.43;;;;;;;31.29;96.36;99787.13;5093833;28;20236;-81
2023/08/20 10:59:25;;;;;;;10.10;9.40;;;;;;;31.18;94.86;99780.47;5101375;28;20240;-82
2023/08/20 11:01:54;;;;;;;10.23;9.43;;;;;;;31.61;95.21;99782.47;5099939;28;20587;-82
2023/08/20 11:04:27;;;;;;;9.73;9.02;;;;;;;31.71;93.20;99782.75;5098984;28;20195;-84
2023/08/20 11:06:56;;;;;;;9.98;9.18;;;;;;;31.71;88.06;99768.09;5097630;28;20192;-84
2023/08/20 11:09:26;;;;;;;10.00;9.30;;;;;;;31.76;91.90;99778.91;5088967;28;20292;-82
2023/08/20 11:11:53;;;;;;;10.00;9.15;;;;;;;31.70;93.85;99770.06;5106387;28;20184;-82
2023/08/20 11:14:23;;;;;;;11.00;10.00;;;;;;;31.46;94.50;99765.47;5101806;28;20203;-83
2023/08/20 11:16:51;;;;;;;9.75;8.90;;;;;;;31.80;94.48;99772.31;5095167;28;20204;-82
2023/08/20 11:19:22;;;;;;;10.13;9.43;;;;;;;32.22;94.11;99775.34;5103794;28;20697;-82
2023/08/20 11:21:51;;;;;;;10.70;9.80;;;;;;;32.44;92.48;99773.03;5101841;28;20196;-82
2023/08/20 11:24:19;;;;;;;10.18;9.40;;;;;;;32.59;91.01;99770.25;5079551;28;20207;-82